Time;durP1;ratioP1;P1;durP2;ratioP2;P2;SDS_P1;SDS_P2;PMS_P1;PMS_P2;Temp;Humidity;BMP_temperature;BMP_pressure;BME280_temperature;BME280_humidity;BME280_pressure;Samples;Min_cycle;Max_cycle;Signal;HPM_P1;HPM_P2
2023/03/30 00:01:02;;;;;;;;;;;13.60;70.60;;;;;;5025602;28;19920;-83
2023/03/30 00:03:27;;;;;;;;;;;13.60;70.70;;;;;;5034462;28;19917;-82
2023/03/30 00:05:56;;;;;;;;;;;13.50;71.10;;;;;;5041314;28;19966;-83
2023/03/30 00:08:26;;;;;;;;;;;13.40;71.40;;;;;;5038551;28;20306;-83
2023/03/30 00:11:21;;;;;;;;;;;13.40;71.40;;;;;;5034461;28;20325;-83
2023/03/30 00:13:49;;;;;;;;;;;13.40;71.10;;;;;;5036928;28;19917;-83
2023/03/30 00:16:15;;;;;;;;;;;13.40;71.00;;;;;;5022699;28;19913;-83
2023/03/30 00:18:40;;;;;;;;;;;13.40;71.20;;;;;;5040773;28;19913;-83
2023/03/30 00:21:08;;;;;;;;;;;13.40;71.20;;;;;;5036819;28;20540;-83
2023/03/30 00:23:33;;;;;;;;;;;13.40;71.00;;;;;;5038121;28;19944;-83
2023/03/30 00:25:59;;;;;;;;;;;13.50;70.70;;;;;;5044540;28;19970;-83
2023/03/30 00:28:29;;;;;;;;;;;13.50;70.40;;;;;;5029399;28;19920;-83
2023/03/30 00:30:55;;;;;;;;;;;13.50;70.10;;;;;;5039889;28;19917;-83
2023/03/30 00:33:21;;;;;;;;;;;13.50;70.40;;;;;;5045527;28;19923;-83
2023/03/30 00:35:53;;;;;;;;;;;13.60;70.20;;;;;;5028729;28;19913;-83
2023/03/30 00:38:20;;;;;;;;;;;13.60;70.20;;;;;;5040622;28;19984;-83
2023/03/30 00:40:52;;;;;;;;;;;13.60;70.00;;;;;;5037177;28;19978;-83
2023/03/30 00:43:18;;;;;;;;;;;13.50;70.20;;;;;;5030122;28;19912;-83
2023/03/30 00:45:43;;;;;;;;;;;13.60;69.60;;;;;;5033635;28;19909;-83
2023/03/30 00:48:16;;;;;;;;;;;13.60;69.30;;;;;;5037716;28;20329;-83
2023/03/30 00:50:46;;;;;;;;;;;13.60;69.30;;;;;;5039600;28;20317;-83
2023/03/30 00:53:15;;;;;;;;;;;13.60;69.30;;;;;;5035601;28;19960;-83
2023/03/30 00:55:41;;;;;;;;;;;13.60;68.90;;;;;;5031133;28;19980;-83
2023/03/30 00:58:08;;;;;;;;;;;13.70;68.60;;;;;;5027881;28;19913;-83
2023/03/30 01:00:37;;;;;;;;;;;13.70;68.90;;;;;;5046920;28;19955;-83
2023/03/30 01:03:05;;;;;;;;;;;13.70;68.80;;;;;;5033737;28;20448;-82
2023/03/30 01:05:30;;;;;;;;;;;13.60;68.90;;;;;;5043647;28;19952;-83
2023/03/30 01:07:57;;;;;;;;;;;13.60;68.80;;;;;;5033235;28;19956;-83
2023/03/30 01:10:22;;;;;;;;;;;13.60;68.80;;;;;;5032258;28;19932;-83
2023/03/30 01:12:48;;;;;;;;;;;13.60;68.80;;;;;;5044417;28;19913;-83
2023/03/30 01:15:15;;;;;;;;;;;13.60;68.70;;;;;;5027038;28;19913;-82
2023/03/30 01:18:02;;;;;;;;;;;13.60;68.10;;;;;;5048366;28;19912;-83
2023/03/30 01:20:46;;;;;;;;;;;13.60;68.10;;;;;;5047325;28;19917;-83
2023/03/30 01:23:34;;;;;;;;;;;13.60;68.30;;;;;;5038807;28;20437;-83
2023/03/30 01:26:19;;;;;;;;;;;13.70;67.60;;;;;;5047856;28;19924;-83
2023/03/30 01:28:51;;;;;;;;;;;13.80;67.60;;;;;;5027573;28;19928;-82
2023/03/30 01:31:35;;;;;;;;;;;13.90;67.40;;;;;;5029419;28;20263;-83
2023/03/30 01:34:19;;;;;;;;;;;13.80;67.40;;;;;;5039825;28;19959;-83
2023/03/30 01:37:03;;;;;;;;;;;14.00;66.90;;;;;;5026757;28;19963;-83
2023/03/30 01:39:46;;;;;;;;;;;14.00;67.10;;;;;;5029876;28;20252;-83
2023/03/30 01:42:17;;;;;;;;;;;14.00;67.00;;;;;;5021077;28;19956;-83
2023/03/30 01:44:42;;;;;;;;;;;13.90;66.90;;;;;;5019756;28;20436;-83
2023/03/30 01:47:07;;;;;;;;;;;14.00;66.80;;;;;;5039940;28;19956;-83
2023/03/30 01:49:52;;;;;;;;;;;14.00;67.00;;;;;;5030132;28;19956;-82
2023/03/30 01:52:30;;;;;;;;;;;14.10;65.90;;;;;;5023855;28;19955;-83
2023/03/30 01:54:59;;;;;;;;;;;14.20;65.40;;;;;;5025550;28;19920;-83
2023/03/30 01:57:29;;;;;;;;;;;14.30;65.20;;;;;;5034138;28;19912;-83
2023/03/30 01:59:56;;;;;;;;;;;14.20;65.00;;;;;;5028894;28;19913;-83
2023/03/30 02:02:23;;;;;;;;;;;14.40;64.10;;;;;;5040356;28;19917;-83
2023/03/30 02:04:52;;;;;;;;;;;14.40;64.50;;;;;;5039478;28;20310;-82
2023/03/30 02:07:21;;;;;;;;;;;14.50;63.50;;;;;;5038635;28;19921;-83
2023/03/30 02:09:48;;;;;;;;;;;14.60;63.10;;;;;;5036481;28;20014;-84
2023/03/30 02:12:13;;;;;;;;;;;14.80;62.00;;;;;;5037664;28;19920;-83
2023/03/30 02:14:40;;;;;;;;;;;15.00;61.70;;;;;;5020128;28;19923;-83
2023/03/30 02:17:13;;;;;;;;;;;15.00;61.70;;;;;;5029342;28;19959;-83
2023/03/30 02:19:38;;;;;;;;;;;15.00;61.50;;;;;;5031521;28;19913;-83
2023/03/30 02:22:05;;;;;;;;;;;14.90;61.90;;;;;;5051159;28;19920;-83
2023/03/30 02:24:31;;;;;;;;;;;14.90;61.90;;;;;;5047347;28;19913;-84
2023/03/30 02:26:57;;;;;;;;;;;14.90;62.20;;;;;;5045052;28;19913;-84
2023/03/30 02:29:22;;;;;;;;;;;15.00;61.40;;;;;;5033536;28;20030;-84
2023/03/30 02:31:49;;;;;;;;;;;15.10;61.40;;;;;;5028846;28;19917;-83
2023/03/30 02:34:33;;;;;;;;;;;15.10;61.30;;;;;;5031779;28;19921;-83
2023/03/30 02:37:18;;;;;;;;;;;15.20;61.20;;;;;;5037141;28;19921;-83
2023/03/30 02:39:50;;;;;;;;;;;15.20;61.10;;;;;;5038639;28;20007;-83
2023/03/30 02:42:32;;;;;;;;;;;15.30;60.80;;;;;;5030841;28;19943;-83
2023/03/30 02:45:01;;;;;;;;;;;15.20;60.60;;;;;;5028946;28;19917;-83
2023/03/30 02:47:46;;;;;;;;;;;15.30;60.50;;;;;;5036699;28;19928;-83
2023/03/30 02:50:30;;;;;;;;;;;15.40;60.20;;;;;;5043473;28;19913;-84
2023/03/30 02:53:01;;;;;;;;;;;15.50;60.60;;;;;;5034384;28;19928;-83
2023/03/30 02:55:35;;;;;;;;;;;15.40;60.60;;;;;;5037176;28;19992;-83
2023/03/30 02:58:07;;;;;;;;;;;15.30;60.80;;;;;;5040121;28;19931;-83
2023/03/30 03:00:40;;;;;;;;;;;15.30;60.80;;;;;;5048386;28;19909;-83
2023/03/30 03:03:18;;;;;;;;;;;15.30;61.00;;;;;;5027789;28;20377;-83
2023/03/30 03:05:44;;;;;;;;;;;15.30;61.10;;;;;;5040748;28;19913;-83
2023/03/30 03:08:12;;;;;;;;;;;15.20;61.40;;;;;;5037118;28;19917;-83
2023/03/30 03:10:37;;;;;;;;;;;15.20;61.70;;;;;;5049636;28;20338;-83
2023/03/30 03:13:03;;;;;;;;;;;15.20;61.40;;;;;;5041600;28;19917;-83
2023/03/30 03:15:29;;;;;;;;;;;15.20;61.00;;;;;;5052454;28;19917;-83
2023/03/30 03:17:54;;;;;;;;;;;15.20;61.30;;;;;;5025157;28;19948;-83
2023/03/30 03:20:20;;;;;;;;;;;15.20;61.40;;;;;;5052203;28;19982;-83
2023/03/30 03:22:45;;;;;;;;;;;15.10;61.90;;;;;;5046281;28;19917;-83
2023/03/30 03:25:11;;;;;;;;;;;15.20;61.60;;;;;;5043118;28;19936;-83
2023/03/30 03:27:36;;;;;;;;;;;15.10;61.90;;;;;;5046757;28;20394;-83
2023/03/30 03:30:02;;;;;;;;;;;15.10;62.10;;;;;;5030315;28;19947;-84
2023/03/30 03:32:28;;;;;;;;;;;15.10;61.90;;;;;;5024980;28;19921;-84
2023/03/30 03:34:54;;;;;;;;;;;15.10;61.90;;;;;;5040086;28;19959;-83
2023/03/30 03:37:19;;;;;;;;;;;15.10;62.00;;;;;;5022895;28;19996;-84
2023/03/30 03:39:45;;;;;;;;;;;15.10;62.00;;;;;;5029432;28;19917;-83
2023/03/30 03:42:10;;;;;;;;;;;15.10;62.00;;;;;;5027198;28;19920;-83
2023/03/30 03:44:36;;;;;;;;;;;15.20;61.70;;;;;;5020902;28;19934;-83
2023/03/30 03:47:02;;;;;;;;;;;15.20;61.60;;;;;;5039976;28;19917;-83
2023/03/30 03:49:27;;;;;;;;;;;15.30;61.60;;;;;;5031384;28;19927;-83
2023/03/30 03:51:53;;;;;;;;;;;15.30;61.70;;;;;;5045504;28;20469;-83
2023/03/30 03:54:18;;;;;;;;;;;15.30;61.70;;;;;;5022687;28;19913;-84
2023/03/30 03:56:43;;;;;;;;;;;15.30;61.70;;;;;;5031184;28;19913;-83
2023/03/30 03:59:09;;;;;;;;;;;15.20;62.10;;;;;;5031150;28;20255;-83
2023/03/30 04:01:35;;;;;;;;;;;15.20;62.10;;;;;;5049172;28;20784;-83
2023/03/30 04:04:00;;;;;;;;;;;15.20;62.30;;;;;;5039799;28;19949;-83
2023/03/30 04:06:26;;;;;;;;;;;15.10;62.70;;;;;;5032674;28;20009;-83
2023/03/30 04:08:51;;;;;;;;;;;15.10;62.80;;;;;;5040430;28;19912;-83
2023/03/30 04:11:17;;;;;;;;;;;15.00;62.90;;;;;;5026282;28;20018;-83
2023/03/30 04:13:42;;;;;;;;;;;15.10;62.80;;;;;;5022480;28;19924;-83
2023/03/30 04:16:08;;;;;;;;;;;15.00;63.00;;;;;;5047859;28;19924;-83
2023/03/30 04:18:34;;;;;;;;;;;15.00;63.30;;;;;;5040135;28;19912;-82
2023/03/30 04:21:01;;;;;;;;;;;15.00;63.40;;;;;;5043922;28;21189;-83
2023/03/30 04:23:32;;;;;;;;;;;15.00;63.30;;;;;;5029786;28;19917;-82
2023/03/30 04:26:07;;;;;;;;;;;15.00;63.20;;;;;;5047057;28;19913;-82
2023/03/30 04:28:34;;;;;;;;;;;15.00;63.70;;;;;;5047703;28;19923;-88
2023/03/30 04:31:00;;;;;;;;;;;14.90;63.90;;;;;;5031999;28;19928;-81
2023/03/30 04:33:26;;;;;;;;;;;14.90;64.30;;;;;;5035760;28;19944;-81
2023/03/30 04:35:51;;;;;;;;;;;15.00;64.00;;;;;;5022902;28;20310;-81
2023/03/30 04:38:21;;;;;;;;;;;15.00;63.70;;;;;;5024407;28;19913;-81
2023/03/30 04:40:50;;;;;;;;;;;15.00;64.00;;;;;;5044766;28;19913;-81
2023/03/30 04:43:18;;;;;;;;;;;15.00;63.90;;;;;;5030148;28;19978;-80
2023/03/30 04:45:50;;;;;;;;;;;14.80;64.50;;;;;;5045766;28;19916;-81
2023/03/30 04:48:16;;;;;;;;;;;15.00;63.90;;;;;;5025039;28;19924;-81
2023/03/30 04:50:43;;;;;;;;;;;15.00;63.70;;;;;;5033204;28;19912;-81
2023/03/30 04:53:09;;;;;;;;;;;15.00;64.10;;;;;;5025379;28;20308;-81
2023/03/30 04:55:35;;;;;;;;;;;15.00;63.90;;;;;;5035985;28;19919;-81
2023/03/30 04:58:00;;;;;;;;;;;15.00;64.40;;;;;;5045926;28;19917;-83
2023/03/30 05:00:26;;;;;;;;;;;15.00;64.40;;;;;;5052459;28;20342;-82
2023/03/30 05:02:52;;;;;;;;;;;14.90;64.90;;;;;;5047178;28;19974;-82
2023/03/30 05:05:17;;;;;;;;;;;14.90;64.50;;;;;;5043312;28;19923;-87
2023/03/30 05:07:43;;;;;;;;;;;14.90;64.60;;;;;;5024548;28;19925;-88
2023/03/30 05:10:08;;;;;;;;;;;15.00;64.50;;;;;;5025368;28;19919;-83
2023/03/30 05:12:34;;;;;;;;;;;14.90;65.00;;;;;;5030310;28;19939;-82
2023/03/30 05:14:59;;;;;;;;;;;14.80;64.90;;;;;;5039674;28;19917;-82
2023/03/30 05:17:25;;;;;;;;;;;14.80;65.10;;;;;;5046163;28;20298;-82
2023/03/30 05:19:50;;;;;;;;;;;14.90;64.80;;;;;;5038574;28;19919;-81
2023/03/30 05:22:15;;;;;;;;;;;14.80;65.20;;;;;;5036735;28;19917;-82
2023/03/30 05:24:41;;;;;;;;;;;14.80;65.30;;;;;;5034122;28;19952;-82
2023/03/30 05:27:06;;;;;;;;;;;14.70;65.40;;;;;;5036920;28;19917;-82
2023/03/30 05:29:32;;;;;;;;;;;14.70;65.60;;;;;;5048005;28;19909;-82
2023/03/30 05:31:57;;;;;;;;;;;14.70;65.60;;;;;;5041408;28;19917;-82
2023/03/30 05:34:23;;;;;;;;;;;14.70;65.40;;;;;;5037575;28;19916;-83
2023/03/30 05:36:48;;;;;;;;;;;14.80;65.60;;;;;;5039508;28;20003;-82
2023/03/30 05:39:14;;;;;;;;;;;14.80;65.50;;;;;;5044855;28;19913;-83
2023/03/30 05:41:39;;;;;;;;;;;14.90;65.10;;;;;;5027793;28;19917;-82
2023/03/30 05:44:06;;;;;;;;;;;14.90;65.30;;;;;;5019381;28;19913;-82
2023/03/30 05:46:31;;;;;;;;;;;14.90;65.70;;;;;;5042532;28;19921;-82
2023/03/30 05:48:56;;;;;;;;;;;14.90;65.70;;;;;;5043667;28;20000;-82
2023/03/30 05:51:22;;;;;;;;;;;14.90;65.80;;;;;;5048186;28;19921;-83
2023/03/30 05:53:47;;;;;;;;;;;14.90;65.90;;;;;;5031491;28;19912;-82
2023/03/30 05:56:13;;;;;;;;;;;14.80;66.10;;;;;;5027366;28;20722;-82
2023/03/30 05:58:38;;;;;;;;;;;14.80;66.10;;;;;;5026268;28;19991;-83
2023/03/30 06:01:04;;;;;;;;;;;14.80;66.60;;;;;;5041267;28;19912;-82
2023/03/30 06:03:30;;;;;;;;;;;14.70;66.80;;;;;;5029892;28;20362;-82
2023/03/30 06:05:56;;;;;;;;;;;14.70;67.00;;;;;;5033524;28;20294;-81
2023/03/30 06:08:21;;;;;;;;;;;14.70;66.70;;;;;;5022443;28;19917;-82
2023/03/30 06:10:51;;;;;;;;;;;14.70;67.00;;;;;;5031872;28;20393;-82
2023/03/30 06:13:16;;;;;;;;;;;14.60;67.00;;;;;;5032914;28;19916;-82
2023/03/30 06:15:43;;;;;;;;;;;14.60;67.30;;;;;;5041343;28;19920;-81
2023/03/30 06:18:09;;;;;;;;;;;14.50;67.60;;;;;;5030257;28;20003;-80
2023/03/30 06:20:34;;;;;;;;;;;14.60;67.60;;;;;;5039525;28;20402;-80
2023/03/30 06:23:00;;;;;;;;;;;14.60;67.70;;;;;;5034811;28;19941;-80
2023/03/30 06:25:26;;;;;;;;;;;14.50;67.60;;;;;;5038762;28;19913;-80
2023/03/30 06:27:51;;;;;;;;;;;14.50;67.80;;;;;;5043634;28;20378;-80
2023/03/30 06:30:16;;;;;;;;;;;14.50;68.00;;;;;;5024947;28;19952;-80
2023/03/30 06:32:42;;;;;;;;;;;14.40;68.20;;;;;;5033636;28;19917;-80
2023/03/30 06:35:07;;;;;;;;;;;14.50;68.30;;;;;;5038185;28;19913;-80
2023/03/30 06:37:35;;;;;;;;;;;14.50;68.10;;;;;;5039735;28;19912;-81
2023/03/30 06:40:06;;;;;;;;;;;14.50;68.20;;;;;;5025115;28;20007;-81
2023/03/30 06:42:32;;;;;;;;;;;14.60;67.80;;;;;;5048370;28;20055;-81
2023/03/30 06:44:57;;;;;;;;;;;14.60;67.40;;;;;;5043262;28;20290;-81
2023/03/30 06:47:23;;;;;;;;;;;14.70;67.30;;;;;;5044235;28;19920;-81
2023/03/30 06:49:48;;;;;;;;;;;14.60;67.40;;;;;;5046213;28;19913;-82
2023/03/30 06:52:14;;;;;;;;;;;14.60;67.10;;;;;;5043795;28;19919;-81
2023/03/30 06:54:39;;;;;;;;;;;14.70;67.20;;;;;;5036993;28;19951;-79
2023/03/30 06:57:05;;;;;;;;;;;14.80;67.20;;;;;;5021896;28;20301;-80
2023/03/30 06:59:32;;;;;;;;;;;14.90;67.10;;;;;;5033148;28;19909;-81
2023/03/30 07:01:58;;;;;;;;;;;15.00;66.80;;;;;;5033887;28;19912;-80
2023/03/30 07:04:23;;;;;;;;;;;15.10;66.00;;;;;;5042132;28;19921;-82
2023/03/30 07:06:48;;;;;;;;;;;15.30;65.60;;;;;;5044562;28;20321;-81
2023/03/30 07:09:14;;;;;;;;;;;15.50;65.30;;;;;;5024226;28;20279;-82
2023/03/30 07:11:39;;;;;;;;;;;15.70;65.40;;;;;;5051765;28;19920;-82
2023/03/30 07:14:06;;;;;;;;;;;15.80;64.70;;;;;;5046869;28;19912;-82
2023/03/30 07:16:31;;;;;;;;;;;15.90;64.40;;;;;;5037900;28;19913;-82
2023/03/30 07:18:57;;;;;;;;;;;15.90;64.00;;;;;;5050744;28;19913;-83
2023/03/30 07:21:22;;;;;;;;;;;15.90;63.80;;;;;;5046499;28;20444;-82
2023/03/30 07:23:48;;;;;;;;;;;15.80;63.80;;;;;;5054584;28;19933;-82
2023/03/30 07:26:13;;;;;;;;;;;15.70;64.00;;;;;;5042943;28;19917;-82
2023/03/30 07:28:42;;;;;;;;;;;15.70;64.20;;;;;;5038511;28;19960;-82
2023/03/30 07:31:08;;;;;;;;;;;15.60;63.90;;;;;;5026768;28;19917;-83
2023/03/30 07:33:35;;;;;;;;;;;15.60;63.70;;;;;;5050679;28;19912;-80
2023/03/30 07:36:02;;;;;;;;;;;15.60;63.80;;;;;;5036108;28;19921;-81
2023/03/30 07:38:27;;;;;;;;;;;15.50;64.30;;;;;;5047487;28;19935;-80
2023/03/30 07:40:52;;;;;;;;;;;15.50;64.40;;;;;;5025367;28;20316;-83
2023/03/30 07:43:18;;;;;;;;;;;15.50;64.50;;;;;;5049514;28;19924;-82
2023/03/30 07:45:43;;;;;;;;;;;15.50;64.50;;;;;;5043646;28;19940;-81
2023/03/30 07:48:09;;;;;;;;;;;15.30;64.80;;;;;;5031345;28;20305;-82
2023/03/30 07:50:34;;;;;;;;;;;15.30;65.40;;;;;;5041490;28;19924;-81
2023/03/30 07:53:00;;;;;;;;;;;15.10;65.50;;;;;;5038756;28;19920;-81
2023/03/30 07:55:27;;;;;;;;;;;15.10;65.80;;;;;;5026407;28;19913;-81
2023/03/30 07:57:53;;;;;;;;;;;15.10;66.30;;;;;;5035031;28;20343;-81
2023/03/30 08:00:21;;;;;;;;;;;15.10;66.40;;;;;;5030137;28;19912;-81
2023/03/30 08:02:46;;;;;;;;;;;15.10;66.50;;;;;;5031767;28;19999;-81
2023/03/30 08:05:12;;;;;;;;;;;15.10;66.50;;;;;;5046438;28;20009;-83
2023/03/30 08:07:37;;;;;;;;;;;15.10;66.30;;;;;;5047874;28;19917;-82
2023/03/30 08:10:03;;;;;;;;;;;15.00;66.90;;;;;;5041518;28;19924;-82
2023/03/30 08:12:28;;;;;;;;;;;15.10;66.80;;;;;;5044654;28;20434;-84
2023/03/30 08:14:54;;;;;;;;;;;15.10;66.70;;;;;;5047401;28;20301;-83
2023/03/30 08:17:20;;;;;;;;;;;15.00;67.50;;;;;;5036825;28;19972;-84
2023/03/30 08:19:45;;;;;;;;;;;15.00;69.90;;;;;;5023628;28;19974;-83
2023/03/30 08:22:11;;;;;;;;;;;14.80;73.60;;;;;;5026141;28;20258;-84
2023/03/30 08:24:36;;;;;;;;;;;14.50;75.70;;;;;;5030335;28;20450;-83
2023/03/30 08:27:02;;;;;;;;;;;14.30;76.80;;;;;;5044950;28;19917;-83
2023/03/30 08:29:30;;;;;;;;;;;14.30;77.10;;;;;;5043257;28;19921;-85
2023/03/30 08:31:56;;;;;;;;;;;14.20;76.80;;;;;;5035215;28;19931;-83
2023/03/30 08:34:21;;;;;;;;;;;14.30;76.40;;;;;;5020306;28;19917;-83
2023/03/30 08:36:47;;;;;;;;;;;14.50;76.20;;;;;;5045908;28;20347;-83
2023/03/30 08:39:12;;;;;;;;;;;14.60;75.50;;;;;;5022274;28;19917;-83
2023/03/30 08:41:56;;;;;;;;;;;14.70;74.90;;;;;;5038795;28;19917;-83
2023/03/30 08:44:39;;;;;;;;;;;14.80;74.30;;;;;;5026295;28;19913;-82
2023/03/30 08:47:10;;;;;;;;;;;14.80;74.10;;;;;;5046817;28;19920;-83
2023/03/30 08:49:40;;;;;;;;;;;14.90;73.80;;;;;;5035242;28;19921;-83
2023/03/30 08:52:06;;;;;;;;;;;14.90;72.90;;;;;;5016372;28;19913;-85
2023/03/30 08:54:32;;;;;;;;;;;14.90;72.10;;;;;;5025066;28;19931;-82
2023/03/30 08:56:58;;;;;;;;;;;14.80;71.80;;;;;;5023707;28;19972;-84
2023/03/30 08:59:49;;;;;;;;;;;14.90;72.30;;;;;;5027129;28;19921;-83
2023/03/30 09:02:21;;;;;;;;;;;14.90;71.50;;;;;;5019048;28;20298;-84
2023/03/30 09:05:00;;;;;;;;;;;15.10;72.20;;;;;;5021659;28;19992;-85
2023/03/30 09:07:31;;;;;;;;;;;15.30;70.50;;;;;;5037905;28;19999;-85
2023/03/30 09:09:57;;;;;;;;;;;15.30;70.80;;;;;;5027721;28;19913;-86
2023/03/30 09:12:42;;;;;;;;;;;15.20;70.60;;;;;;5023549;28;20400;-90
2023/03/30 09:15:20;;;;;;;;;;;15.00;70.50;;;;;;5040071;28;19935;-83
2023/03/30 09:17:47;;;;;;;;;;;15.00;69.90;;;;;;5025480;28;19913;-82
2023/03/30 09:20:32;;;;;;;;;;;15.10;69.30;;;;;;5040896;28;19917;-82
2023/03/30 09:22:58;;;;;;;;;;;15.10;69.20;;;;;;5014135;28;19913;-82
2023/03/30 09:25:27;;;;;;;;;;;15.00;68.90;;;;;;5030553;28;19917;-82
2023/03/30 09:28:22;;;;;;;;;;;15.00;68.20;;;;;;5030965;28;20386;-83
2023/03/30 09:30:48;;;;;;;;;;;15.10;69.10;;;;;;4992780;28;19924;-82
2023/03/30 09:33:33;;;;;;;;;;;15.30;67.80;;;;;;5040350;28;20377;-81
2023/03/30 09:36:07;;;;;;;;;;;15.70;67.80;;;;;;5046037;28;20000;-82
2023/03/30 09:38:36;;;;;;;;;;;15.90;66.20;;;;;;5042905;28;19921;-82
2023/03/30 09:41:06;;;;;;;;;;;15.80;65.60;;;;;;5039447;28;20477;-82
2023/03/30 09:43:42;;;;;;;;;;;15.70;65.60;;;;;;5042631;28;19920;-82
2023/03/30 09:46:08;;;;;;;;;;;15.70;64.70;;;;;;5046217;28;20006;-81
2023/03/30 09:48:37;;;;;;;;;;;15.60;65.50;;;;;;5017478;28;19959;-82
2023/03/30 09:51:12;;;;;;;;;;;15.50;66.20;;;;;;5045930;28;20070;-82
2023/03/30 09:53:39;;;;;;;;;;;15.60;65.70;;;;;;5019137;28;19913;-82
2023/03/30 09:56:15;;;;;;;;;;;15.50;64.80;;;;;;5023866;28;20054;-82
2023/03/30 09:58:41;;;;;;;;;;;15.50;65.30;;;;;;5045263;28;20410;-82
2023/03/30 10:01:15;;;;;;;;;;;15.50;65.60;;;;;;5036693;28;20008;-82
2023/03/30 10:03:42;;;;;;;;;;;15.50;65.50;;;;;;5038109;28;19998;-82
2023/03/30 10:06:07;;;;;;;;;;;15.40;65.60;;;;;;5022637;28;20277;-82
2023/03/30 10:08:52;;;;;;;;;;;15.30;65.70;;;;;;5014990;28;20296;-83
2023/03/30 10:11:29;;;;;;;;;;;15.20;65.60;;;;;;5025317;28;19974;-81
2023/03/30 10:13:56;;;;;;;;;;;15.00;65.70;;;;;;5023718;28;19919;-81
2023/03/30 10:16:27;;;;;;;;;;;15.00;65.60;;;;;;5020638;28;19929;-82
2023/03/30 10:18:58;;;;;;;;;;;15.00;65.90;;;;;;5038308;28;20447;-82
2023/03/30 10:21:28;;;;;;;;;;;15.00;66.40;;;;;;5021419;28;19916;-81
2023/03/30 10:24:06;;;;;;;;;;;15.00;65.90;;;;;;5044077;28;19920;-81
2023/03/30 10:26:34;;;;;;;;;;;14.80;66.40;;;;;;5035838;28;19916;-82
2023/03/30 10:29:03;;;;;;;;;;;14.50;67.70;;;;;;5024469;28;19932;-82
2023/03/30 10:31:30;;;;;;;;;;;14.20;72.90;;;;;;5025829;28;19943;-81
2023/03/30 10:33:57;;;;;;;;;;;13.80;76.50;;;;;;5044129;28;20414;-83
2023/03/30 10:36:24;;;;;;;;;;;13.30;79.80;;;;;;5037556;28;19917;-83
2023/03/30 10:38:51;;;;;;;;;;;13.00;81.90;;;;;;5027331;28;20019;-83
2023/03/30 10:41:21;;;;;;;;;;;12.70;83.20;;;;;;5021694;28;19916;-82
2023/03/30 10:43:48;;;;;;;;;;;12.70;83.90;;;;;;5024715;28;19917;-82
2023/03/30 10:46:15;;;;;;;;;;;12.70;84.30;;;;;;5024685;28;20023;-82
2023/03/30 10:48:47;;;;;;;;;;;12.70;84.40;;;;;;5026198;28;19923;-82
2023/03/30 10:51:18;;;;;;;;;;;12.80;84.00;;;;;;5024664;28;20436;-83
2023/03/30 10:54:07;;;;;;;;;;;12.90;84.10;;;;;;5021362;28;19917;-82
2023/03/30 10:56:32;;;;;;;;;;;13.10;83.50;;;;;;5014298;28;20043;-82
2023/03/30 10:59:17;;;;;;;;;;;13.30;82.40;;;;;;5027933;28;20004;-82
2023/03/30 11:01:51;;;;;;;;;;;13.50;82.50;;;;;;5028106;28;19912;-82
2023/03/30 11:04:20;;;;;;;;;;;13.60;82.00;;;;;;5032120;28;20058;-83
2023/03/30 11:06:45;;;;;;;;;;;13.60;81.70;;;;;;5033613;28;19913;-82
2023/03/30 11:09:17;;;;;;;;;;;13.80;81.10;;;;;;5038620;28;19928;-83
2023/03/30 11:11:52;;;;;;;;;;;13.80;80.10;;;;;;5042999;28;19991;-82
2023/03/30 11:14:22;;;;;;;;;;;13.90;80.10;;;;;;5040128;28;19921;-84
2023/03/30 11:16:53;;;;;;;;;;;14.00;81.00;;;;;;5027564;28;19913;-82
2023/03/30 11:19:22;;;;;;;;;;;14.00;80.10;;;;;;5023968;28;19916;-83
2023/03/30 11:22:01;;;;;;;;;;;14.30;78.80;;;;;;5042524;28;19917;-82
2023/03/30 11:24:27;;;;;;;;;;;14.50;78.60;;;;;;5029446;28;19909;-82
2023/03/30 11:27:11;;;;;;;;;;;14.60;77.80;;;;;;5022571;28;19925;-84
2023/03/30 11:29:55;;;;;;;;;;;14.80;77.40;;;;;;5047952;28;19920;-80
2023/03/30 11:32:24;;;;;;;;;;;14.90;75.90;;;;;;5027794;28;19966;-80
2023/03/30 11:34:58;;;;;;;;;;;14.70;75.40;;;;;;5051618;28;21322;-82
2023/03/30 11:37:28;;;;;;;;;;;14.90;74.90;;;;;;5026134;28;19996;-83
2023/03/30 11:39:58;;;;;;;;;;;15.10;74.10;;;;;;5045613;28;19917;-83
2023/03/30 11:42:26;;;;;;;;;;;15.10;73.00;;;;;;5023180;28;19916;-83
2023/03/30 11:44:51;;;;;;;;;;;15.10;73.40;;;;;;5029593;28;19912;-82
2023/03/30 11:47:35;;;;;;;;;;;15.10;72.60;;;;;;5045239;28;19920;-81
2023/03/30 11:50:10;;;;;;;;;;;15.30;71.70;;;;;;5047281;28;19923;-82
2023/03/30 11:52:42;;;;;;;;;;;15.30;71.20;;;;;;5032127;28;20385;-82
2023/03/30 11:55:13;;;;;;;;;;;15.30;73.20;;;;;;5023491;28;19913;-82
2023/03/30 11:57:41;;;;;;;;;;;15.40;72.40;;;;;;5041787;28;19999;-83
2023/03/30 12:00:10;;;;;;;;;;;15.50;71.40;;;;;;5027024;28;19924;-82
2023/03/30 12:02:35;;;;;;;;;;;15.60;72.50;;;;;;5024370;28;20351;-82
2023/03/30 12:05:14;;;;;;;;;;;15.50;71.60;;;;;;5025061;28;19913;-83
2023/03/30 12:07:39;;;;;;;;;;;15.40;70.50;;;;;;5040491;28;19921;-82
2023/03/30 12:10:13;;;;;;;;;;;15.40;70.30;;;;;;5031717;28;20370;-82
2023/03/30 12:12:40;;;;;;;;;;;15.40;70.90;;;;;;5032944;28;19995;-81
2023/03/30 12:15:21;;;;;;;;;;;15.50;70.90;;;;;;5032616;28;19912;-82
2023/03/30 12:17:46;;;;;;;;;;;15.50;70.40;;;;;;5035637;28;19936;-81
2023/03/30 12:20:30;;;;;;;;;;;15.50;69.80;;;;;;5025560;28;20638;-82
2023/03/30 12:23:11;;;;;;;;;;;15.30;70.60;;;;;;5040562;28;20343;-83
2023/03/30 12:25:53;;;;;;;;;;;15.10;74.00;;;;;;5026739;28;19953;-84
2023/03/30 12:28:22;;;;;;;;;;;14.90;73.80;;;;;;5028355;28;19921;-84
2023/03/30 12:33:13;;;;;;;;;;;14.00;78.30;;;;;;5044510;22;19964;-81
2023/03/30 12:35:50;;;;;;;;;;;13.90;80.00;;;;;;5028699;28;19922;-82
2023/03/30 12:38:18;;;;;;;;;;;13.80;78.90;;;;;;5026089;28;19935;-82
2023/03/30 12:40:47;;;;;;;;;;;13.90;79.70;;;;;;5028587;28;19921;-82
2023/03/30 12:43:17;;;;;;;;;;;13.80;79.70;;;;;;5043350;28;20443;-81
2023/03/30 12:46:01;;;;;;;;;;;13.80;82.00;;;;;;5042538;28;19937;-80
2023/03/30 12:48:39;;;;;;;;;;;13.50;82.60;;;;;;5044510;28;19957;-80
2023/03/30 12:51:23;;;;;;;;;;;13.10;83.70;;;;;;5055842;28;19932;-79
2023/03/30 12:54:01;;;;;;;;;;;13.10;84.50;;;;;;5042969;28;19936;-81
2023/03/30 12:56:32;;;;;;;;;;;13.20;85.60;;;;;;5027900;28;20329;-84
2023/03/30 12:59:12;;;;;;;;;;;13.30;86.30;;;;;;5020761;28;19917;-82
2023/03/30 13:01:54;;;;;;;;;;;13.50;84.70;;;;;;5029205;28;19921;-81
2023/03/30 13:04:20;;;;;;;;;;;13.60;84.10;;;;;;5041413;28;19923;-82
2023/03/30 13:06:49;;;;;;;;;;;13.60;83.00;;;;;;5023849;28;19917;-80
2023/03/30 13:09:14;;;;;;;;;;;13.60;83.00;;;;;;5040792;28;19921;-81
2023/03/30 13:11:52;;;;;;;;;;;13.50;82.70;;;;;;5021187;28;20100;-81
2023/03/30 13:14:25;;;;;;;;;;;13.40;82.40;;;;;;5027431;28;19921;-81
2023/03/30 13:16:51;;;;;;;;;;;13.30;81.10;;;;;;5019951;28;19913;-80
2023/03/30 13:19:31;;;;;;;;;;;13.20;81.60;;;;;;5027378;28;19977;-80
2023/03/30 13:22:17;;;;;;;;;;;13.10;82.10;;;;;;5024991;28;20390;-81
2023/03/30 13:24:56;;;;;;;;;;;13.00;82.30;;;;;;5027015;28;19913;-82
2023/03/30 13:27:24;;;;;;;;;;;13.20;82.30;;;;;;5024240;28;19932;-85
2023/03/30 13:29:53;;;;;;;;;;;13.20;81.80;;;;;;5026407;28;19917;-78
2023/03/30 13:32:22;;;;;;;;;;;13.10;83.00;;;;;;5017618;28;19922;-81
2023/03/30 13:34:54;;;;;;;;;;;12.90;83.90;;;;;;5024760;28;19919;-81
2023/03/30 13:37:25;;;;;;;;;;;12.80;84.10;;;;;;5020109;28;19976;-80
2023/03/30 13:40:06;;;;;;;;;;;12.90;84.60;;;;;;5027829;28;19913;-80
2023/03/30 13:42:31;;;;;;;;;;;13.00;83.00;;;;;;5022690;28;19936;-80
2023/03/30 13:45:08;;;;;;;;;;;13.20;83.50;;;;;;5027513;28;19917;-80
2023/03/30 13:47:52;;;;;;;;;;;13.20;82.50;;;;;;5014339;28;19914;-80
2023/03/30 13:50:23;;;;;;;;;;;13.20;81.60;;;;;;5027376;28;19925;-81
2023/03/30 13:52:50;;;;;;;;;;;13.20;82.00;;;;;;5025668;28;19964;-82
2023/03/30 13:55:35;;;;;;;;;;;13.20;82.50;;;;;;5022301;28;19928;-81
2023/03/30 13:58:09;;;;;;;;;;;13.30;81.70;;;;;;5029652;28;19967;-82
2023/03/30 14:00:42;;;;;;;;;;;13.40;82.10;;;;;;5023118;28;19921;-82
2023/03/30 14:03:37;;;;;;;;;;;13.50;83.10;;;;;;5028603;28;20409;-82
2023/03/30 14:06:06;;;;;;;;;;;13.70;83.20;;;;;;5008834;28;19952;-81
2023/03/30 14:08:35;;;;;;;;;;;13.80;82.50;;;;;;5024013;28;19940;-81
2023/03/30 14:11:10;;;;;;;;;;;14.00;82.60;;;;;;5023327;28;19913;-82
2023/03/30 14:13:36;;;;;;;;;;;14.10;82.20;;;;;;5027807;28;19989;-81
2023/03/30 14:16:02;;;;;;;;;;;14.30;81.80;;;;;;5036477;28;19921;-81
2023/03/30 14:18:28;;;;;;;;;;;14.50;80.40;;;;;;5065376;28;20340;-81
2023/03/30 14:20:53;;;;;;;;;;;14.50;79.60;;;;;;5047785;28;19935;-81
2023/03/30 14:23:22;;;;;;;;;;;14.60;79.80;;;;;;5051595;28;19912;-82
2023/03/30 14:25:52;;;;;;;;;;;14.70;80.40;;;;;;5046006;28;19913;-80
2023/03/30 14:28:18;;;;;;;;;;;14.60;78.50;;;;;;5047513;28;19932;-82
2023/03/30 14:30:48;;;;;;;;;;;14.80;77.40;;;;;;5033083;28;19913;-80
2023/03/30 14:33:15;;;;;;;;;;;14.80;77.70;;;;;;5024900;28;19917;-81